Portada
Imágenes satélite Pronóstico 10 díasClimaPredicción Marítima Ciclones Rayo AeropuertosFAQ Noticias Acerca
El tiempo : Europa África América del Norte América del Sur Asia Australia-Oceanía Otros
Idiomas Contacto

Humberside, Inglaterra

latitud: 53-35N, longitud: 000-21W, altitud: 31 m


METAR: EGNJ 022320Z AUTO 27002KT 8000 BKN004/// 12/11 Q1015
TAF: EGNJ 022300Z 0300/0309 29005KT 9999 SCT030 PROB30 TEMPO 0300/0303 BKN008

Hora: 00:44 (23:44 UTC)

Observación

El informe se hizo hace 24 minutos, a las 23:20 UTC
Viento 2 kt del oeste
Temperatura 12°C
Humedad 94%
Presión 1015 hPa
Visibilidad: 8000 m

Cambiar las unidades

Pronóstico

El informe se hizo hace 44 minutos, a las 23:00 UTC
Pronóstico válido del 03 a las 00 UTC al 03 a las 09 UTC
Viento 5 kt del oeste-noroeste
Visibilidad 10 km o más
Nubes dispersas a una altura de 3000 ft
Probabilidad 30% :
Temporalmente
del 03 a las 00 UTC al 03 a las 03 UTC
Cielo nuboso a una altura de 800 ft
La información que se ofrece en estas páginas está sujeta a una cláusula de exención de responsabilidad
El tiempo : Europa África América del Norte América del Sur Asia Australia-Oceanía Otros
Imágenes satélite Pronóstico 10 díasClimaPredicción Marítima Ciclones Rayo AeropuertosFAQ Idiomas Contacto Noticias Acerca